createdAt,value
2022-11-23T00:00:08.776Z,89.25
2022-11-23T00:01:08.768Z,89.15
2022-11-23T00:02:08.833Z,88.95
2022-11-23T00:03:08.760Z,89.04
2022-11-23T00:04:08.776Z,89.04
2022-11-23T00:05:08.741Z,89.11
2022-11-23T00:06:08.748Z,89.25
2022-11-23T00:07:08.783Z,89.36
2022-11-23T00:08:08.727Z,89.21
2022-11-23T00:09:08.725Z,89.11
2022-11-23T00:10:08.707Z,88.90
2022-11-23T00:11:08.686Z,88.90
2022-11-23T00:12:08.676Z,88.90
2022-11-23T00:13:08.699Z,89.01
2022-11-23T00:14:08.656Z,88.80
2022-11-23T00:15:08.656Z,89.01
2022-11-23T00:16:08.658Z,89.11
2022-11-23T00:17:08.635Z,89.01
2022-11-23T00:18:08.648Z,88.59
2022-11-23T00:19:08.634Z,88.59
2022-11-23T00:20:08.622Z,88.49
2022-11-23T00:21:08.617Z,88.59
2022-11-23T00:22:08.604Z,88.49
2022-11-23T00:23:08.664Z,88.59
2022-11-23T00:24:08.596Z,88.59
2022-11-23T00:25:08.646Z,88.59
2022-11-23T00:26:08.587Z,88.59
2022-11-23T00:27:08.584Z,88.49
2022-11-23T00:28:08.584Z,88.59
2022-11-23T00:29:09.451Z,88.49
2022-11-23T00:30:08.553Z,88.39
2022-11-23T00:31:08.553Z,88.39
2022-11-23T00:32:08.540Z,88.39
2022-11-23T00:33:08.563Z,88.39
2022-11-23T00:34:08.530Z,88.39
2022-11-23T00:35:08.525Z,88.49
2022-11-23T00:36:08.512Z,88.49
2022-11-23T00:37:08.571Z,88.49
2022-11-23T00:38:08.532Z,88.59
2022-11-23T00:39:08.505Z,88.49
2022-11-23T00:40:08.489Z,88.70
2022-11-23T00:41:08.500Z,88.90
2022-11-23T00:42:09.389Z,89.01
2022-11-23T00:43:08.491Z,88.90
2022-11-23T00:44:08.460Z,89.11
2022-11-23T00:45:08.470Z,89.11
2022-11-23T00:46:08.542Z,89.11
2022-11-23T00:47:08.450Z,89.11
2022-11-23T00:48:08.498Z,89.11
2022-11-23T00:49:08.429Z,89.01
2022-11-23T00:50:08.428Z,88.90
2022-11-23T00:51:08.781Z,89.11
2022-11-23T00:52:08.429Z,89.31
2022-11-23T00:53:08.836Z,89.31
2022-11-23T00:54:08.839Z,89.52
2022-11-23T00:55:09.004Z,89.31
2022-11-23T00:56:09.007Z,89.52
2022-11-23T00:57:09.030Z,89.52
2022-11-23T00:58:08.396Z,89.52
2022-11-23T00:59:08.425Z,89.62
2022-11-23T01:00:08.427Z,89.52
2022-11-23T01:01:08.472Z,89.62
2022-11-23T01:02:08.449Z,89.62
2022-11-23T01:03:08.498Z,89.72
2022-11-23T01:04:08.503Z,89.83
2022-11-23T01:05:08.665Z,90.18
2022-11-23T01:06:08.684Z,90.28
2022-11-23T01:07:08.403Z,90.38
2022-11-23T01:08:08.685Z,90.48
2022-11-23T01:09:08.747Z,90.69
2022-11-23T01:10:08.799Z,90.69
2022-11-23T01:11:08.805Z,90.89
2022-11-23T01:12:08.844Z,90.89
2022-11-23T01:13:08.924Z,91.10
2022-11-23T01:14:08.253Z,91.10
2022-11-23T01:15:08.878Z,91.00
2022-11-23T01:16:08.985Z,91.00
2022-11-23T01:17:08.372Z,90.89
2022-11-23T01:18:09.164Z,91.00
2022-11-23T01:19:09.173Z,91.00
2022-11-23T01:20:08.613Z,90.95
2022-11-23T01:21:08.222Z,90.80
2022-11-23T01:22:08.211Z,90.75
2022-11-23T01:23:08.363Z,90.75
2022-11-23T01:24:08.377Z,90.85
2022-11-23T01:25:08.201Z,90.75
2022-11-23T01:26:08.196Z,90.65
2022-11-23T01:27:08.192Z,90.95
2022-11-23T01:28:08.211Z,91.00
2022-11-23T01:29:08.203Z,91.06
2022-11-23T01:30:08.220Z,91.06
2022-11-23T01:31:08.232Z,91.16
2022-11-23T01:32:08.228Z,91.31
2022-11-23T01:33:08.250Z,91.41
2022-11-23T01:34:08.282Z,91.41
2022-11-23T01:35:08.250Z,91.16
2022-11-23T01:36:08.262Z,91.20
2022-11-23T01:37:08.260Z,91.31
2022-11-23T01:38:08.258Z,91.51
2022-11-23T01:39:08.136Z,91.61
2022-11-23T01:40:08.269Z,91.82
2022-11-23T01:41:08.291Z,91.93
2022-11-23T01:42:08.069Z,92.03
2022-11-23T01:43:08.365Z,91.93
2022-11-23T01:44:08.369Z,91.93
2022-11-23T01:45:08.398Z,91.93
2022-11-23T01:46:08.401Z,91.93
2022-11-23T01:47:08.340Z,91.82
2022-11-23T01:48:08.111Z,91.61
2022-11-23T01:49:08.397Z,91.72
2022-11-23T01:50:08.017Z,91.51
2022-11-23T01:51:08.014Z,91.61
2022-11-23T01:52:08.417Z,91.61
2022-11-23T01:53:08.186Z,91.51
2022-11-23T01:54:08.518Z,91.47
2022-11-23T01:55:08.708Z,91.27
2022-11-23T01:56:07.975Z,91.47
2022-11-23T01:57:07.986Z,91.61
2022-11-23T01:58:07.994Z,91.57
2022-11-23T01:59:07.984Z,91.47
2022-11-23T02:00:07.996Z,91.47
2022-11-23T02:01:07.972Z,91.47
2022-11-23T02:02:08.104Z,91.57
2022-11-23T02:03:08.240Z,91.67
2022-11-23T02:04:08.235Z,91.78
2022-11-23T02:05:07.913Z,91.82
2022-11-23T02:06:07.902Z,91.57
2022-11-23T02:07:07.966Z,91.67
2022-11-23T02:08:07.914Z,91.47
2022-11-23T02:09:08.122Z,91.47
2022-11-23T02:10:08.557Z,91.57
2022-11-23T02:11:08.262Z,91.67
2022-11-23T02:12:08.726Z,91.57
2022-11-23T02:14:33.840Z,91.16
2022-11-23T02:15:33.810Z,90.95
2022-11-23T02:16:33.901Z,90.85
2022-11-23T02:17:33.801Z,90.55
2022-11-23T02:18:33.794Z,90.65
2022-11-23T02:19:34.099Z,90.55
2022-11-23T02:20:33.800Z,90.55
2022-11-23T02:21:33.786Z,90.50
2022-11-23T02:22:33.880Z,90.55
2022-11-23T02:23:33.903Z,90.85
2022-11-23T02:24:33.920Z,91.06
2022-11-23T02:25:33.971Z,91.16
2022-11-23T02:26:33.971Z,91.06
2022-11-23T02:27:33.787Z,91.27
2022-11-23T02:28:33.890Z,91.27
2022-11-23T02:29:34.225Z,91.27
2022-11-23T02:30:33.866Z,91.27
2022-11-23T02:31:33.988Z,91.57
2022-11-23T02:32:33.707Z,91.67
2022-11-23T02:33:33.715Z,91.78
2022-11-23T02:34:33.715Z,91.78
2022-11-23T02:35:33.814Z,91.78
2022-11-23T02:36:33.826Z,91.88
2022-11-23T02:37:33.716Z,91.57
2022-11-23T02:38:33.724Z,91.37
2022-11-23T02:39:33.933Z,91.57
2022-11-23T02:40:33.876Z,91.57
2022-11-23T02:41:33.866Z,91.27
2022-11-23T02:42:33.874Z,91.37
2022-11-23T02:43:34.078Z,91.27
2022-11-23T02:44:33.666Z,91.16
2022-11-23T02:45:33.674Z,91.16
2022-11-23T02:46:33.655Z,91.16
2022-11-23T02:47:34.104Z,91.06
2022-11-23T02:48:33.988Z,91.16
2022-11-23T02:49:33.871Z,91.16
2022-11-23T02:50:34.115Z,91.27
2022-11-23T02:51:33.718Z,91.27
2022-11-23T02:52:33.572Z,91.37
2022-11-23T02:53:33.562Z,91.27
2022-11-23T02:54:33.730Z,90.95
2022-11-23T02:55:34.313Z,90.95
2022-11-23T02:56:34.331Z,91.06
2022-11-23T02:57:33.555Z,91.27
2022-11-23T02:58:34.356Z,91.16
2022-11-23T02:59:33.856Z,90.95
2022-11-23T03:00:33.820Z,90.95
2022-11-23T03:01:34.073Z,90.75
2022-11-23T03:02:33.581Z,90.85
2022-11-23T03:03:34.093Z,90.81
2022-11-23T03:04:34.002Z,90.55
2022-11-23T03:05:33.908Z,90.71
2022-11-23T03:06:33.631Z,90.55
2022-11-23T03:07:34.062Z,90.55
2022-11-23T03:08:34.294Z,90.50
2022-11-23T03:09:33.740Z,90.40
2022-11-23T03:10:33.527Z,90.20
2022-11-23T03:11:33.449Z,90.30
2022-11-23T03:12:33.458Z,90.40
2022-11-23T03:13:33.450Z,90.40
2022-11-23T03:14:33.457Z,90.40
2022-11-23T03:15:33.670Z,90.40
2022-11-23T03:16:33.471Z,90.61
2022-11-23T03:17:33.470Z,90.50
2022-11-23T03:18:33.479Z,90.50
2022-11-23T03:19:33.551Z,90.40
2022-11-23T03:20:33.418Z,90.50
2022-11-23T03:21:33.401Z,90.40
2022-11-23T03:22:33.507Z,90.50
2022-11-23T03:23:33.366Z,90.50
2022-11-23T03:24:33.356Z,90.50
2022-11-23T03:25:33.365Z,90.55
2022-11-23T03:26:33.347Z,90.75
2022-11-23T03:27:33.334Z,90.61
2022-11-23T03:28:33.325Z,90.65
2022-11-23T03:29:33.608Z,90.75
2022-11-23T03:30:33.347Z,90.61
2022-11-23T03:31:33.305Z,90.71
2022-11-23T03:32:33.305Z,90.75
2022-11-23T03:33:33.294Z,90.50
2022-11-23T03:34:33.596Z,90.50
2022-11-23T03:35:33.604Z,90.71
2022-11-23T03:36:33.615Z,90.71
2022-11-23T03:37:33.345Z,90.71
2022-11-23T03:38:33.368Z,90.75
2022-11-23T03:39:33.646Z,90.65
2022-11-23T03:40:33.275Z,90.55
2022-11-23T03:41:33.243Z,90.61
2022-11-23T03:42:33.262Z,90.50
2022-11-23T03:43:33.313Z,90.71
2022-11-23T03:44:33.361Z,90.61
2022-11-23T03:45:33.393Z,90.85
2022-11-23T03:46:33.443Z,90.91
2022-11-23T03:47:33.383Z,90.91
2022-11-23T03:48:33.261Z,91.02
2022-11-23T03:49:33.503Z,90.91
2022-11-23T03:50:33.205Z,91.33
2022-11-23T03:51:33.191Z,91.47
2022-11-23T03:52:33.279Z,91.33
2022-11-23T03:53:33.300Z,91.33
2022-11-23T03:54:33.340Z,91.27
2022-11-23T03:55:33.394Z,91.47
2022-11-23T03:56:33.438Z,91.57
2022-11-23T03:57:33.479Z,91.67
2022-11-23T03:58:33.555Z,91.47
2022-11-23T03:59:33.509Z,91.37
2022-11-23T04:00:33.184Z,91.57
2022-11-23T04:01:33.680Z,91.78
2022-11-23T04:02:33.710Z,91.99
2022-11-23T04:03:33.152Z,92.40
2022-11-23T04:04:33.207Z,92.80
2022-11-23T04:05:33.414Z,92.80
2022-11-23T04:06:33.582Z,93.42
2022-11-23T04:07:33.971Z,94.04
2022-11-23T04:08:33.328Z,93.83
2022-11-23T04:09:33.323Z,94.55
2022-11-23T04:10:33.217Z,95.21
2022-11-23T04:11:33.077Z,95.21
2022-11-23T04:12:33.078Z,95.10
2022-11-23T04:13:33.049Z,95.52
2022-11-23T04:14:33.328Z,96.03
2022-11-23T04:15:34.003Z,96.44
2022-11-23T04:16:33.886Z,96.44
2022-11-23T04:17:33.726Z,96.65
2022-11-23T04:18:33.045Z,96.95
2022-11-23T04:19:33.365Z,97.16
2022-11-23T04:20:34.035Z,97.41
2022-11-23T04:21:33.704Z,97.31
2022-11-23T04:22:33.073Z,97.20
2022-11-23T04:23:32.994Z,97.20
2022-11-23T04:24:33.154Z,97.31
2022-11-23T04:25:33.454Z,97.62
2022-11-23T04:26:33.846Z,97.62
2022-11-23T04:27:33.343Z,97.82
2022-11-23T04:28:33.276Z,97.41
2022-11-23T04:29:33.150Z,97.20
2022-11-23T04:30:32.983Z,97.41
2022-11-23T04:31:33.032Z,97.41
2022-11-23T04:32:32.922Z,97.20
2022-11-23T04:33:32.991Z,97.20
2022-11-23T04:34:33.181Z,97.36
2022-11-23T04:35:33.243Z,97.15
2022-11-23T04:36:33.160Z,97.25
2022-11-23T04:37:33.272Z,97.05
2022-11-23T04:38:33.382Z,96.73
2022-11-23T04:39:33.667Z,96.64
2022-11-23T04:40:33.469Z,96.18
2022-11-23T04:41:33.000Z,96.08
2022-11-23T04:42:32.981Z,96.33
2022-11-23T04:43:32.839Z,95.77
2022-11-23T04:44:32.930Z,95.77
2022-11-23T04:45:33.000Z,95.87
2022-11-23T04:46:33.030Z,96.08
2022-11-23T04:47:33.059Z,96.08
2022-11-23T04:48:33.098Z,95.87
2022-11-23T04:49:33.091Z,95.56
2022-11-23T04:50:33.200Z,95.56
2022-11-23T04:51:33.240Z,95.56
2022-11-23T04:52:33.039Z,95.56
2022-11-23T04:53:32.787Z,95.77
2022-11-23T04:54:33.373Z,95.87
2022-11-23T04:55:33.418Z,95.67
2022-11-23T04:56:32.765Z,95.25
2022-11-23T04:57:32.889Z,95.46
2022-11-23T04:58:34.482Z,95.77
2022-11-23T04:59:32.939Z,95.87
2022-11-23T05:00:32.746Z,95.77
2022-11-23T05:01:32.834Z,95.97
2022-11-23T05:02:32.736Z,95.67
2022-11-23T05:03:32.768Z,95.56
2022-11-23T05:04:32.773Z,95.87
2022-11-23T05:05:32.736Z,95.87
2022-11-23T05:06:32.745Z,95.87
2022-11-23T05:07:32.829Z,96.08
2022-11-23T05:08:32.768Z,96.08
2022-11-23T05:09:33.211Z,96.39
2022-11-23T05:10:32.775Z,96.48
2022-11-23T05:11:32.864Z,96.48
2022-11-23T05:12:32.878Z,97.00
2022-11-23T05:13:32.790Z,96.59
2022-11-23T05:14:32.902Z,96.90
2022-11-23T05:15:32.703Z,96.69
2022-11-23T05:16:32.923Z,96.28
2022-11-23T05:17:32.940Z,96.69
2022-11-23T05:18:32.952Z,96.90
2022-11-23T05:19:32.826Z,97.10
2022-11-23T05:20:32.684Z,97.31
2022-11-23T05:21:33.054Z,97.00
2022-11-23T05:22:33.062Z,96.69
2022-11-23T05:23:33.061Z,96.80
2022-11-23T05:24:33.071Z,96.69
2022-11-23T05:25:33.031Z,96.90
2022-11-23T05:26:33.051Z,96.90
2022-11-23T05:27:32.641Z,96.80
2022-11-23T05:28:41.401Z,96.69
2022-11-23T05:29:33.431Z,96.69
2022-11-23T05:30:33.111Z,96.90
2022-11-23T05:31:33.110Z,97.20
2022-11-23T05:32:32.542Z,96.90
2022-11-23T05:33:33.000Z,97.05
2022-11-23T05:34:32.520Z,97.15
2022-11-23T05:35:32.526Z,97.05
2022-11-23T05:36:32.512Z,96.94
2022-11-23T05:37:32.489Z,96.64
2022-11-23T05:38:32.892Z,96.22
2022-11-23T05:39:32.782Z,96.02
2022-11-23T05:40:32.698Z,95.92
2022-11-23T05:41:32.912Z,95.81
2022-11-23T05:42:32.504Z,95.40
2022-11-23T05:43:32.491Z,95.50
2022-11-23T05:44:32.497Z,95.71
2022-11-23T05:45:33.908Z,95.61
2022-11-23T05:46:32.447Z,95.50
2022-11-23T05:47:32.443Z,95.50
2022-11-23T05:48:32.416Z,95.61
2022-11-23T05:49:32.875Z,95.71
2022-11-23T05:50:32.427Z,95.96
2022-11-23T05:51:32.406Z,95.96
2022-11-23T05:52:32.407Z,96.06
2022-11-23T05:53:32.446Z,96.06
2022-11-23T05:54:32.456Z,96.06
2022-11-23T05:55:32.893Z,96.27
2022-11-23T05:56:37.235Z,96.06
2022-11-23T05:57:32.495Z,95.86
2022-11-23T05:58:33.104Z,95.34
2022-11-23T05:59:33.341Z,95.34
2022-11-23T06:00:33.125Z,95.09
2022-11-23T06:01:33.223Z,94.78
2022-11-23T06:02:38.154Z,94.78
2022-11-23T06:03:32.435Z,94.58
2022-11-23T06:04:32.324Z,94.68
2022-11-23T06:05:32.603Z,94.48
2022-11-23T06:06:33.334Z,94.58
2022-11-23T06:07:32.846Z,94.68
2022-11-23T06:08:32.372Z,94.58
2022-11-23T06:09:33.227Z,94.37
2022-11-23T06:10:32.422Z,94.48
2022-11-23T06:11:32.532Z,94.37
2022-11-23T06:12:32.442Z,94.37
2022-11-23T06:13:32.712Z,94.27
2022-11-23T06:14:32.410Z,94.27
2022-11-23T06:15:33.230Z,94.17
2022-11-23T06:16:32.582Z,94.27
2022-11-23T06:17:32.299Z,94.37
2022-11-23T06:18:32.859Z,94.07
2022-11-23T06:19:32.472Z,94.07
2022-11-23T06:20:32.229Z,93.86
2022-11-23T06:21:32.210Z,93.86
2022-11-23T06:22:32.329Z,93.86
2022-11-23T06:23:32.210Z,93.55
2022-11-23T06:24:32.427Z,93.44
2022-11-23T06:25:32.307Z,93.65
2022-11-23T06:26:32.508Z,93.65
2022-11-23T06:27:32.242Z,93.76
2022-11-23T06:28:32.248Z,93.86
2022-11-23T06:29:32.856Z,93.86
2022-11-23T06:30:32.137Z,93.96
2022-11-23T06:31:33.584Z,93.96
2022-11-23T06:32:32.326Z,94.17
2022-11-23T06:33:32.124Z,94.01
2022-11-23T06:34:32.106Z,94.01
2022-11-23T06:35:32.095Z,93.96
2022-11-23T06:36:32.137Z,93.96
2022-11-23T06:37:32.135Z,94.01
2022-11-23T06:38:32.076Z,94.01
2022-11-23T06:39:32.314Z,94.01
2022-11-23T06:40:32.194Z,93.90
2022-11-23T06:41:32.695Z,94.01
2022-11-23T06:42:38.792Z,94.01
2022-11-23T06:43:32.044Z,93.90
2022-11-23T06:44:32.076Z,93.90
2022-11-23T06:45:32.037Z,93.90
2022-11-23T06:46:32.032Z,93.80
2022-11-23T06:47:32.033Z,94.01
2022-11-23T06:48:32.262Z,94.01
2022-11-23T06:49:32.591Z,94.21
2022-11-23T06:50:32.022Z,94.11
2022-11-23T06:51:32.433Z,94.01
2022-11-23T06:52:32.424Z,93.90
2022-11-23T06:53:32.004Z,93.90
2022-11-23T06:54:32.020Z,94.01
2022-11-23T06:55:32.362Z,94.21
2022-11-23T06:56:32.372Z,94.36
2022-11-23T06:57:32.003Z,94.36
2022-11-23T06:58:32.032Z,94.56
2022-11-23T06:59:32.390Z,94.36
2022-11-23T07:00:32.173Z,94.36
2022-11-23T07:01:32.284Z,94.46
2022-11-23T07:02:32.259Z,94.36
2022-11-23T07:03:32.330Z,93.90
2022-11-23T07:04:32.109Z,94.01
2022-11-23T07:05:31.898Z,94.15
2022-11-23T07:06:32.190Z,94.36
2022-11-23T07:07:32.091Z,94.36
2022-11-23T07:08:32.358Z,94.26
2022-11-23T07:09:32.793Z,94.36
2022-11-23T07:10:32.078Z,94.15
2022-11-23T07:11:31.929Z,94.15
2022-11-23T07:12:32.236Z,94.26
2022-11-23T07:13:32.603Z,94.46
2022-11-23T07:14:32.548Z,94.36
2022-11-23T07:15:32.126Z,94.36
2022-11-23T07:16:31.875Z,94.56
2022-11-23T07:17:31.971Z,94.56
2022-11-23T07:18:32.687Z,94.56
2022-11-23T07:19:33.076Z,94.67
2022-11-23T07:20:32.155Z,94.46
2022-11-23T07:21:31.814Z,94.36
2022-11-23T07:22:32.727Z,94.36
2022-11-23T07:23:32.331Z,94.11
2022-11-23T07:24:38.709Z,93.90
2022-11-23T07:25:32.416Z,93.80
2022-11-23T07:26:31.804Z,93.70
2022-11-23T07:27:31.854Z,93.49
2022-11-23T07:28:32.123Z,93.59
2022-11-23T07:29:32.696Z,93.59
2022-11-23T07:30:32.173Z,93.08
2022-11-23T07:31:32.593Z,93.04
2022-11-23T07:32:31.852Z,92.83
2022-11-23T07:33:31.724Z,92.83
2022-11-23T07:34:31.714Z,92.52
2022-11-23T07:35:31.815Z,92.63
2022-11-23T07:36:31.716Z,92.63
2022-11-23T07:37:31.783Z,92.52
2022-11-23T07:38:31.703Z,92.42
2022-11-23T07:39:55.675Z,92.42
2022-11-23T07:40:31.701Z,92.27
2022-11-23T07:41:31.702Z,92.27
2022-11-23T07:42:35.759Z,92.07
2022-11-23T07:43:31.660Z,91.86
2022-11-23T07:44:31.710Z,91.76
2022-11-23T07:45:31.742Z,91.51
2022-11-23T07:46:31.823Z,91.31
2022-11-23T07:47:31.865Z,90.89
2022-11-23T07:48:36.144Z,91.00
2022-11-23T07:49:32.035Z,90.89
2022-11-23T07:50:31.799Z,90.80
2022-11-23T07:51:31.931Z,90.80
2022-11-23T07:52:31.777Z,90.89
2022-11-23T07:53:31.919Z,90.89
2022-11-23T07:54:31.939Z,90.89
2022-11-23T07:55:31.758Z,90.69
2022-11-23T07:56:31.943Z,90.48
2022-11-23T07:57:31.587Z,90.59
2022-11-23T07:58:31.587Z,90.18
2022-11-23T07:59:32.022Z,90.14
2022-11-23T08:00:31.956Z,89.83
2022-11-23T08:01:31.728Z,90.03
2022-11-23T08:02:32.064Z,89.83
2022-11-23T08:03:32.116Z,89.62
2022-11-23T08:04:31.931Z,89.93
2022-11-23T08:05:32.077Z,89.21
2022-11-23T08:06:31.567Z,89.17
2022-11-23T08:07:31.514Z,88.66
2022-11-23T08:08:31.509Z,88.86
2022-11-23T08:09:31.546Z,88.56
2022-11-23T08:10:31.478Z,88.62
2022-11-23T08:11:31.480Z,88.41
2022-11-23T08:12:31.504Z,88.51
2022-11-23T08:14:57.611Z,88.56
2022-11-23T08:15:57.653Z,88.00
2022-11-23T08:16:57.411Z,88.35
2022-11-23T08:17:58.072Z,88.14
2022-11-23T08:18:57.419Z,88.35
2022-11-23T08:19:57.389Z,88.04
2022-11-23T08:20:57.392Z,87.53
2022-11-23T08:21:57.372Z,87.70
2022-11-23T08:22:57.387Z,87.73
2022-11-23T08:23:57.418Z,87.63
2022-11-23T08:24:57.377Z,87.94
2022-11-23T08:25:57.349Z,87.84
2022-11-23T08:26:57.350Z,88.14
2022-11-23T08:27:57.368Z,87.84
2022-11-23T08:28:57.379Z,87.84
2022-11-23T08:29:57.389Z,88.04
2022-11-23T08:30:57.407Z,87.84
2022-11-23T08:31:57.371Z,87.73
2022-11-23T08:32:57.346Z,87.32
2022-11-23T08:34:01.798Z,87.12
2022-11-23T08:34:57.327Z,87.22
2022-11-23T08:35:57.269Z,86.57
2022-11-23T08:36:57.493Z,86.71
2022-11-23T08:37:57.253Z,86.50
2022-11-23T08:38:57.536Z,86.60
2022-11-23T08:39:57.238Z,86.71
2022-11-23T08:40:57.544Z,86.19
2022-11-23T08:41:57.556Z,86.50
2022-11-23T08:42:57.225Z,86.71
2022-11-23T08:43:57.237Z,85.64
2022-11-23T08:44:57.585Z,85.33
2022-11-23T08:46:03.260Z,85.74
2022-11-23T08:46:57.314Z,85.54
2022-11-23T08:47:57.195Z,85.33
2022-11-23T08:48:57.205Z,84.72
2022-11-23T08:49:57.175Z,85.03
2022-11-23T08:50:57.294Z,85.33
2022-11-23T08:51:57.175Z,86.66
2022-11-23T08:52:57.174Z,86.01
2022-11-23T08:53:57.181Z,84.99
2022-11-23T08:54:57.144Z,84.33
2022-11-23T08:55:57.146Z,83.61
2022-11-23T08:56:57.278Z,83.72
2022-11-23T08:57:57.126Z,83.41
2022-11-23T08:58:57.677Z,83.76
2022-11-23T08:59:57.133Z,83.34
2022-11-23T09:00:57.154Z,83.76
2022-11-23T09:01:57.143Z,84.27
2022-11-23T09:02:57.110Z,83.96
2022-11-23T09:03:57.099Z,84.17
2022-11-23T09:04:57.101Z,84.06
2022-11-23T09:05:57.860Z,83.65
2022-11-23T09:06:57.872Z,83.45
2022-11-23T09:07:57.895Z,83.45
2022-11-23T09:08:57.900Z,83.86
2022-11-23T09:09:57.918Z,83.86
2022-11-23T09:10:57.900Z,83.76
2022-11-23T09:11:57.940Z,83.65
2022-11-23T09:12:57.977Z,83.34
2022-11-23T09:13:57.970Z,83.45
2022-11-23T09:14:57.989Z,83.14
2022-11-23T09:15:57.939Z,83.34
2022-11-23T09:16:57.840Z,83.34
2022-11-23T09:17:58.010Z,83.45
2022-11-23T09:18:57.907Z,83.55
2022-11-23T09:19:57.809Z,83.55
2022-11-23T09:20:57.001Z,83.55
2022-11-23T09:21:56.989Z,83.65
2022-11-23T09:22:56.967Z,83.34
2022-11-23T09:23:56.957Z,83.14
2022-11-23T09:24:56.988Z,83.04
2022-11-23T09:25:56.936Z,82.83
2022-11-23T09:26:56.960Z,82.69
2022-11-23T09:27:56.967Z,83.00
2022-11-23T09:28:57.064Z,82.39
2022-11-23T09:29:56.974Z,82.08
2022-11-23T09:30:56.900Z,81.57
2022-11-23T09:31:56.986Z,81.05
2022-11-23T09:32:57.000Z,81.05
2022-11-23T09:33:56.895Z,80.40
2022-11-23T09:34:56.914Z,80.30
2022-11-23T09:35:56.855Z,80.40
2022-11-23T09:36:56.870Z,79.89
2022-11-23T09:37:56.843Z,79.79
2022-11-23T09:38:57.608Z,79.75
2022-11-23T09:39:56.852Z,79.54
2022-11-23T09:40:57.859Z,79.13
2022-11-23T09:41:56.821Z,79.50
2022-11-23T09:42:56.813Z,79.10
2022-11-23T09:43:56.809Z,78.59
2022-11-23T09:44:57.683Z,78.14
2022-11-23T09:45:57.631Z,78.24
2022-11-23T09:46:56.873Z,77.53
2022-11-23T09:47:56.911Z,77.94
2022-11-23T09:48:57.533Z,77.90
2022-11-23T09:49:56.783Z,77.19
2022-11-23T09:50:56.772Z,76.67
2022-11-23T09:51:56.752Z,75.65
2022-11-23T09:52:56.741Z,75.34
2022-11-23T09:53:56.745Z,75.24
2022-11-23T09:54:56.829Z,75.79
2022-11-23T09:55:56.735Z,75.99
2022-11-23T09:57:01.432Z,76.67
2022-11-23T09:57:57.740Z,75.85
2022-11-23T09:58:57.650Z,75.45
2022-11-23T09:59:57.551Z,75.92
2022-11-23T10:00:56.771Z,74.29
2022-11-23T10:01:56.805Z,74.56
2022-11-23T10:02:56.700Z,72.58
2022-11-23T10:03:56.712Z,72.34
2022-11-23T10:04:56.790Z,72.04
2022-11-23T10:05:56.661Z,71.19
2022-11-23T10:06:56.649Z,70.85
2022-11-23T10:07:56.639Z,70.65
2022-11-23T10:08:56.657Z,69.49
2022-11-23T10:09:56.649Z,68.68
2022-11-23T10:10:56.628Z,68.17
2022-11-23T10:11:56.617Z,67.86
2022-11-23T10:12:56.619Z,67.83
2022-11-23T10:13:56.601Z,67.22
2022-11-23T10:14:56.619Z,68.24
2022-11-23T10:15:56.596Z,67.52
2022-11-23T10:16:56.586Z,67.02
2022-11-23T10:17:56.577Z,67.73
2022-11-23T10:18:56.578Z,68.88
2022-11-23T10:19:56.583Z,69.22
2022-11-23T10:20:56.560Z,69.63
2022-11-23T10:21:56.548Z,68.44
2022-11-23T10:22:56.545Z,68.04
2022-11-23T10:23:56.534Z,67.52
2022-11-23T10:24:56.546Z,67.43
2022-11-23T10:25:56.516Z,66.99
2022-11-23T10:26:56.517Z,67.29
2022-11-23T10:27:56.505Z,67.60
2022-11-23T10:28:56.502Z,67.66
2022-11-23T10:29:56.509Z,67.16
2022-11-23T10:30:56.485Z,66.99
2022-11-23T10:31:57.477Z,66.24
2022-11-23T10:32:56.474Z,66.88
2022-11-23T10:33:56.484Z,67.36
2022-11-23T10:34:56.494Z,65.86
2022-11-23T10:35:56.453Z,66.78
2022-11-23T10:36:56.454Z,66.17
2022-11-23T10:37:56.452Z,66.07
2022-11-23T10:38:56.432Z,66.17
2022-11-23T10:39:56.482Z,66.78
2022-11-23T10:40:56.423Z,66.07
2022-11-23T10:41:56.413Z,66.47
2022-11-23T10:42:56.408Z,65.73
2022-11-23T10:43:56.556Z,65.50
2022-11-23T10:44:56.417Z,65.70
2022-11-23T10:45:59.813Z,65.70
2022-11-23T10:46:56.373Z,64.79
2022-11-23T10:47:56.364Z,65.19
2022-11-23T10:48:56.371Z,65.91
2022-11-23T10:49:56.373Z,64.69
2022-11-23T10:50:56.362Z,65.50
2022-11-23T10:51:56.340Z,65.50
2022-11-23T10:52:56.353Z,66.14
2022-11-23T10:53:58.516Z,66.27
2022-11-23T10:54:56.514Z,66.71
2022-11-23T10:55:56.334Z,67.90
2022-11-23T10:56:56.365Z,68.40
2022-11-23T10:57:56.304Z,69.15
2022-11-23T10:58:56.304Z,69.05
2022-11-23T10:59:56.311Z,70.10
2022-11-23T11:00:56.302Z,70.20
2022-11-23T11:01:56.301Z,70.44
2022-11-23T11:02:56.270Z,70.75
2022-11-23T11:03:56.259Z,71.19
2022-11-23T11:04:58.705Z,71.19
2022-11-23T11:06:12.346Z,71.50
2022-11-23T11:06:56.373Z,70.78
2022-11-23T11:07:56.231Z,70.88
2022-11-23T11:08:56.591Z,70.95
2022-11-23T11:09:56.220Z,70.23
2022-11-23T11:10:57.137Z,69.93
2022-11-23T11:11:57.040Z,71.05
2022-11-23T11:12:56.209Z,70.14
2022-11-23T11:13:56.206Z,69.86
2022-11-23T11:14:59.321Z,70.17
2022-11-23T11:15:56.208Z,69.86
2022-11-23T11:16:56.185Z,69.45
2022-11-23T11:17:56.158Z,69.04
2022-11-23T11:18:56.157Z,69.96
2022-11-23T11:19:56.258Z,69.15
2022-11-23T11:20:56.326Z,69.65
2022-11-23T11:21:56.147Z,69.45
2022-11-23T11:22:56.135Z,69.76
2022-11-23T11:23:56.130Z,69.96
2022-11-23T11:24:56.497Z,69.35
2022-11-23T11:25:56.126Z,69.45
2022-11-23T11:26:56.105Z,69.76
2022-11-23T11:27:56.113Z,69.73
2022-11-23T11:28:56.094Z,69.52
2022-11-23T11:29:56.086Z,68.84
2022-11-23T11:30:56.112Z,68.53
2022-11-23T11:31:56.069Z,69.04
2022-11-23T11:32:56.064Z,70.47
2022-11-23T11:33:56.045Z,69.62
2022-11-23T11:34:56.046Z,68.80
2022-11-23T11:35:56.115Z,69.21
2022-11-23T11:36:56.042Z,69.11
2022-11-23T11:37:56.033Z,69.11
2022-11-23T11:39:19.611Z,68.91
2022-11-23T11:39:56.014Z,70.54
2022-11-23T11:40:56.023Z,68.80
2022-11-23T11:41:56.001Z,68.70
2022-11-23T11:42:55.993Z,70.44
2022-11-23T11:43:55.983Z,69.52
2022-11-23T11:44:55.983Z,69.11
2022-11-23T11:46:55.973Z,68.84
2022-11-23T11:47:55.956Z,68.94
2022-11-23T11:48:55.985Z,68.94
2022-11-23T11:49:55.944Z,69.35
2022-11-23T11:50:55.943Z,69.96
2022-11-23T11:51:56.018Z,70.00
2022-11-23T11:52:55.928Z,70.00
2022-11-23T11:53:55.928Z,70.57
2022-11-23T11:54:55.922Z,68.77
2022-11-23T11:55:55.912Z,68.16
2022-11-23T11:56:55.930Z,68.26
2022-11-23T11:57:55.889Z,69.01
2022-11-23T11:58:55.901Z,69.62
2022-11-23T11:59:55.893Z,69.82
2022-11-23T12:00:55.881Z,69.21
2022-11-23T12:01:55.892Z,69.42
2022-11-23T12:02:55.876Z,68.60
2022-11-23T12:03:55.850Z,69.72
2022-11-23T12:04:55.851Z,70.03
2022-11-23T12:05:55.840Z,69.42
2022-11-23T12:06:55.858Z,69.82
2022-11-23T12:07:55.869Z,69.31
2022-11-23T12:08:55.826Z,69.21
2022-11-23T12:09:55.811Z,69.52
2022-11-23T12:10:55.817Z,69.55
2022-11-23T12:11:55.820Z,69.24
2022-11-23T12:12:55.792Z,69.85
2022-11-23T12:13:55.798Z,69.04
2022-11-23T12:14:55.779Z,68.84
2022-11-23T12:15:55.797Z,69.34
2022-11-23T12:17:24.731Z,69.45
2022-11-23T12:17:55.758Z,69.14
2022-11-23T12:18:55.756Z,69.34
2022-11-23T12:19:55.746Z,68.63
2022-11-23T12:20:55.755Z,68.22
2022-11-23T12:21:56.342Z,67.50
2022-11-23T12:22:55.748Z,67.60
2022-11-23T12:23:55.743Z,67.71
2022-11-23T12:24:55.707Z,67.19
2022-11-23T12:25:55.696Z,68.01
2022-11-23T12:26:55.713Z,67.81
2022-11-23T12:27:55.746Z,68.01
2022-11-23T12:28:55.761Z,67.10
2022-11-23T12:29:55.785Z,68.32
2022-11-23T12:30:55.666Z,67.81
2022-11-23T12:31:55.703Z,68.12
2022-11-23T12:32:55.644Z,68.52
2022-11-23T12:33:55.645Z,68.73
2022-11-23T12:34:55.734Z,68.22
2022-11-23T12:35:55.635Z,68.73
2022-11-23T12:36:55.667Z,69.65
2022-11-23T12:37:55.674Z,68.84
2022-11-23T12:38:55.675Z,68.93
2022-11-23T12:39:55.681Z,68.93
2022-11-23T12:40:55.594Z,69.75
2022-11-23T12:41:55.614Z,69.14
2022-11-23T12:42:55.595Z,69.65
2022-11-23T12:43:55.601Z,69.96
2022-11-23T12:44:55.612Z,70.57
2022-11-23T12:45:55.583Z,69.85
2022-11-23T12:46:55.609Z,70.37
2022-11-23T12:47:55.641Z,69.24
2022-11-23T12:48:55.533Z,69.75
2022-11-23T12:49:55.534Z,68.84
2022-11-23T12:50:55.551Z,68.42
2022-11-23T12:51:55.557Z,68.52
2022-11-23T12:52:55.774Z,68.01
2022-11-23T12:53:55.660Z,67.60
2022-11-23T12:54:55.490Z,67.47
2022-11-23T12:55:55.576Z,67.98